createdAt,value
2018-01-26T00:02:18.528Z,5.60
2018-01-26T00:04:45.681Z,5.90
2018-01-26T00:07:12.602Z,5.03
2018-01-26T00:09:39.783Z,5.62
2018-01-26T00:12:06.681Z,6.05
2018-01-26T00:14:33.565Z,5.60
2018-01-26T00:17:00.432Z,5.50
2018-01-26T00:19:27.556Z,7.10
2018-01-26T00:21:54.448Z,6.78
2018-01-26T00:24:21.361Z,6.55
2018-01-26T00:26:48.216Z,6.93
2018-01-26T00:29:15.118Z,6.60
2018-01-26T00:31:42.009Z,6.53
2018-01-26T00:34:08.921Z,7.00
2018-01-26T00:36:35.813Z,7.00
2018-01-26T00:39:03.027Z,6.80
2018-01-26T00:41:29.916Z,7.40
2018-01-26T00:43:56.818Z,6.80
2018-01-26T00:46:23.936Z,6.68
2018-01-26T00:48:51.130Z,6.65
2018-01-26T00:51:18.030Z,7.00
2018-01-26T00:53:45.220Z,6.82
2018-01-26T00:56:12.461Z,6.40
2018-01-26T00:58:39.344Z,7.20
2018-01-26T01:01:06.266Z,7.53
2018-01-26T01:03:33.505Z,7.22
2018-01-26T01:06:01.141Z,7.50
2018-01-26T01:08:28.320Z,6.93
2018-01-26T01:10:55.184Z,7.18
2018-01-26T01:13:22.416Z,6.37
2018-01-26T01:15:49.592Z,7.22
2018-01-26T01:18:16.440Z,7.82
2018-01-26T01:20:43.656Z,7.33
2018-01-26T01:23:10.913Z,7.12
2018-01-26T01:25:37.792Z,6.82
2018-01-26T01:28:04.668Z,7.18
2018-01-26T01:30:31.854Z,7.20
2018-01-26T01:32:58.748Z,7.82
2018-01-26T01:35:25.947Z,7.22
2018-01-26T01:37:52.808Z,7.78
2018-01-26T01:40:19.717Z,7.32
2018-01-26T01:42:46.621Z,7.22
2018-01-26T01:45:13.828Z,7.87
2018-01-26T01:47:40.720Z,7.25
2018-01-26T01:50:07.929Z,7.62
2018-01-26T01:52:34.800Z,7.70
2018-01-26T01:55:01.706Z,7.95
2018-01-26T01:57:28.864Z,7.55
2018-01-26T01:59:55.774Z,6.50
2018-01-26T02:02:22.958Z,7.70
2018-01-26T02:04:49.826Z,7.60
2018-01-26T02:07:17.061Z,7.83
2018-01-26T02:09:43.989Z,7.32
2018-01-26T02:12:11.148Z,7.40
2018-01-26T02:14:38.024Z,8.25
2018-01-26T02:17:05.251Z,8.90
2018-01-26T02:19:32.407Z,7.00
2018-01-26T02:21:59.300Z,7.25
2018-01-26T02:24:26.156Z,8.48
2018-01-26T02:26:53.342Z,7.82
2018-01-26T02:29:20.248Z,7.75
2018-01-26T02:31:47.428Z,8.43
2018-01-26T02:34:14.317Z,8.37
2018-01-26T02:36:41.197Z,9.00
2018-01-26T02:39:08.104Z,8.90
2018-01-26T02:41:35.284Z,9.02
2018-01-26T02:44:02.474Z,9.07
2018-01-26T02:46:29.332Z,9.25
2018-01-26T02:48:56.192Z,9.48
2018-01-26T02:51:23.103Z,9.60
2018-01-26T02:53:50.249Z,9.50
2018-01-26T02:56:17.146Z,9.55
2018-01-26T02:58:44.009Z,9.83
2018-01-26T03:01:10.857Z,10.10
2018-01-26T03:03:37.897Z,11.15
2018-01-26T03:06:05.085Z,11.00
2018-01-26T03:08:32.014Z,10.20
2018-01-26T03:10:59.176Z,11.55
2018-01-26T03:13:26.083Z,10.10
2018-01-26T03:15:53.277Z,10.38
2018-01-26T03:18:20.178Z,10.80
2018-01-26T03:20:47.072Z,10.93
2018-01-26T03:23:14.330Z,10.70
2018-01-26T03:25:41.471Z,10.93
2018-01-26T03:28:08.392Z,9.90
2018-01-26T03:30:35.298Z,10.90
2018-01-26T03:33:02.197Z,10.93
2018-01-26T03:35:29.106Z,10.98
2018-01-26T03:37:56.005Z,10.60
2018-01-26T03:40:22.916Z,11.82
2018-01-26T03:42:50.089Z,11.45
2018-01-26T03:45:17.342Z,13.23
2018-01-26T03:47:44.275Z,13.43
2018-01-26T03:50:11.170Z,12.88
2018-01-26T03:52:38.077Z,13.50
2018-01-26T03:55:04.940Z,13.67
2018-01-26T03:57:32.068Z,13.62
2018-01-26T03:59:59.212Z,13.80
2018-01-26T04:02:27.074Z,12.60
2018-01-26T04:04:53.956Z,12.43
2018-01-26T04:07:20.812Z,12.70
2018-01-26T04:09:47.725Z,12.13
2018-01-26T04:12:14.975Z,11.88
2018-01-26T04:14:41.848Z,11.68
2018-01-26T04:17:09.066Z,11.38
2018-01-26T04:19:35.973Z,11.02
2018-01-26T04:22:03.158Z,11.95
2018-01-26T04:24:30.064Z,11.30
2018-01-26T04:26:56.965Z,10.20
2018-01-26T04:29:24.013Z,9.95
2018-01-26T04:31:51.145Z,11.80
2018-01-26T04:34:18.303Z,10.30
2018-01-26T04:36:45.245Z,10.60
2018-01-26T04:39:12.340Z,9.50
2018-01-26T04:41:39.549Z,10.10
2018-01-26T04:44:06.409Z,9.98
2018-01-26T04:46:33.378Z,10.52
2018-01-26T04:49:00.294Z,9.60
2018-01-26T04:51:27.805Z,10.52
2018-01-26T04:53:54.702Z,10.07
2018-01-26T04:56:21.614Z,8.77
2018-01-26T04:58:48.515Z,8.75
2018-01-26T05:01:15.728Z,8.90
2018-01-26T05:03:42.619Z,8.60
2018-01-26T05:06:09.858Z,8.65
2018-01-26T05:08:36.737Z,9.00
2018-01-26T05:11:03.679Z,7.90
2018-01-26T05:13:30.586Z,8.13
2018-01-26T05:15:57.800Z,8.57
2018-01-26T05:18:24.747Z,9.20
2018-01-26T05:20:51.625Z,8.63
2018-01-26T05:23:18.542Z,9.35
2018-01-26T05:25:45.683Z,9.60
2018-01-26T05:28:12.840Z,8.90
2018-01-26T05:30:39.759Z,10.07
2018-01-26T05:33:06.640Z,10.00
2018-01-26T05:35:33.508Z,8.95
2018-01-26T05:38:00.745Z,9.05
2018-01-26T05:40:27.647Z,8.40
2018-01-26T05:42:54.546Z,8.00
2018-01-26T05:45:21.710Z,7.50
2018-01-26T05:47:48.642Z,8.50
2018-01-26T05:50:15.719Z,9.30
2018-01-26T05:52:42.615Z,8.90
2018-01-26T05:55:09.486Z,8.30
2018-01-26T05:57:36.597Z,9.23
2018-01-26T06:00:03.473Z,8.38
2018-01-26T06:02:30.722Z,9.30
2018-01-26T06:04:57.945Z,9.30
2018-01-26T06:07:25.060Z,9.80
2018-01-26T06:09:51.961Z,9.02
2018-01-26T06:12:19.113Z,10.02
2018-01-26T06:14:46.336Z,9.90
2018-01-26T06:17:13.245Z,9.60
2018-01-26T06:19:40.442Z,10.20
2018-01-26T06:22:07.337Z,10.40
2018-01-26T06:24:34.536Z,10.88
2018-01-26T06:27:01.686Z,10.27
2018-01-26T06:29:28.932Z,10.40
2018-01-26T06:31:56.089Z,10.20
2018-01-26T06:34:22.936Z,9.40
2018-01-26T06:36:50.188Z,9.77
2018-01-26T06:39:17.048Z,9.75
2018-01-26T06:41:43.908Z,10.82
2018-01-26T06:44:10.794Z,12.88
2018-01-26T06:46:37.676Z,10.67
2018-01-26T06:49:04.541Z,9.53
2018-01-26T06:51:31.648Z,8.95
2018-01-26T06:53:58.782Z,9.37
2018-01-26T06:56:25.949Z,9.57
2018-01-26T06:58:52.850Z,11.68
2018-01-26T07:01:20.073Z,10.80
2018-01-26T07:03:47.304Z,12.00
2018-01-26T07:06:14.234Z,10.73
2018-01-26T07:08:41.447Z,10.02
2018-01-26T07:11:08.300Z,10.77
2018-01-26T07:13:35.400Z,9.60
2018-01-26T07:16:02.646Z,9.05
2018-01-26T07:18:29.504Z,10.05
2018-01-26T07:20:56.741Z,10.40
2018-01-26T07:23:23.608Z,10.65
2018-01-26T07:25:50.464Z,9.40
2018-01-26T07:28:17.348Z,9.00
2018-01-26T07:30:44.523Z,10.90
2018-01-26T07:33:11.392Z,11.60
2018-01-26T07:35:38.269Z,11.05
2018-01-26T07:38:05.144Z,10.30
2018-01-26T07:40:32.009Z,11.40
2018-01-26T07:42:58.925Z,10.23
2018-01-26T07:45:26.088Z,10.65
2018-01-26T07:47:53.002Z,10.15
2018-01-26T07:50:20.809Z,8.82
2018-01-26T07:52:47.717Z,10.02
2018-01-26T07:55:14.576Z,13.98
2018-01-26T07:57:41.486Z,12.15
2018-01-26T08:00:08.350Z,12.15
2018-01-26T08:02:35.528Z,11.20
2018-01-26T08:05:02.676Z,12.85
2018-01-26T08:07:29.938Z,11.93
2018-01-26T08:09:57.080Z,12.70
2018-01-26T08:12:24.238Z,13.60
2018-01-26T08:14:51.380Z,16.80
2018-01-26T08:17:18.241Z,16.33
2018-01-26T08:19:45.112Z,15.02
2018-01-26T08:22:12.324Z,18.75
2018-01-26T08:24:39.250Z,17.45
2018-01-26T08:27:06.136Z,18.40
2018-01-26T08:29:33.004Z,25.52
2018-01-26T08:31:59.989Z,17.20
2018-01-26T08:34:26.844Z,21.75
2018-01-26T08:36:53.765Z,35.05
2018-01-26T08:39:20.669Z,18.33
2018-01-26T08:41:47.528Z,28.25
2018-01-26T08:44:14.728Z,25.20
2018-01-26T08:46:41.884Z,19.48
2018-01-26T08:49:08.815Z,20.27
2018-01-26T08:51:35.722Z,21.80
2018-01-26T08:54:02.920Z,22.83
2018-01-26T08:56:29.834Z,21.35
2018-01-26T08:58:56.731Z,23.30
2018-01-26T09:01:23.596Z,28.45
2018-01-26T09:03:51.114Z,26.85
2018-01-26T09:06:17.987Z,23.35
2018-01-26T09:08:44.871Z,27.30
2018-01-26T09:11:11.763Z,24.25
2018-01-26T09:13:38.908Z,20.50
2018-01-26T09:16:06.048Z,21.60
2018-01-26T09:18:32.925Z,22.08
2018-01-26T09:20:59.826Z,26.75
2018-01-26T09:23:27.091Z,24.50
2018-01-26T09:25:54.236Z,25.27
2018-01-26T09:28:21.131Z,26.95
2018-01-26T09:30:48.337Z,30.27
2018-01-26T09:33:15.482Z,22.55
2018-01-26T09:35:42.389Z,21.45
2018-01-26T09:38:09.308Z,26.02
2018-01-26T09:40:36.204Z,22.17
2018-01-26T09:43:03.141Z,21.05
2018-01-26T09:45:30.003Z,20.62
2018-01-26T09:47:56.888Z,20.60
2018-01-26T09:50:23.815Z,25.80
2018-01-26T09:52:50.691Z,21.58
2018-01-26T09:55:17.566Z,20.20
2018-01-26T09:57:44.431Z,19.40
2018-01-26T10:00:11.300Z,19.00
2018-01-26T10:02:38.179Z,19.57
2018-01-26T10:05:05.365Z,19.02
2018-01-26T10:07:32.516Z,19.35
2018-01-26T10:09:59.396Z,17.98
2018-01-26T10:12:26.298Z,18.80
2018-01-26T10:14:53.463Z,20.00
2018-01-26T10:17:20.366Z,23.50
2018-01-26T10:19:47.554Z,20.08
2018-01-26T10:22:14.494Z,32.17
2018-01-26T10:24:41.395Z,24.70
2018-01-26T10:27:08.306Z,29.05
2018-01-26T10:29:35.321Z,27.37
2018-01-26T10:32:02.355Z,27.40
2018-01-26T10:34:29.605Z,28.05
2018-01-26T10:36:56.870Z,28.52
2018-01-26T10:39:23.787Z,33.90
2018-01-26T10:41:51.041Z,25.20
2018-01-26T10:44:18.248Z,28.20
2018-01-26T10:46:45.493Z,25.80
2018-01-26T10:49:13.022Z,24.45
2018-01-26T10:51:39.906Z,25.27
2018-01-26T10:54:06.841Z,24.50
2018-01-26T10:56:33.732Z,23.45
2018-01-26T10:59:00.613Z,23.97
2018-01-26T11:01:27.662Z,24.83
2018-01-26T11:03:54.865Z,25.07
2018-01-26T11:06:22.081Z,23.85
2018-01-26T11:08:49.347Z,22.23
2018-01-26T11:11:16.456Z,23.42
2018-01-26T11:13:43.346Z,23.10
2018-01-26T11:16:10.234Z,22.75
2018-01-26T11:18:37.424Z,23.20
2018-01-26T11:21:04.305Z,24.70
2018-01-26T11:23:31.180Z,23.10
2018-01-26T11:25:58.358Z,23.65
2018-01-26T11:28:25.508Z,23.65
2018-01-26T11:30:52.770Z,23.80
2018-01-26T11:33:19.918Z,23.90
2018-01-26T11:35:47.064Z,26.35
2018-01-26T11:38:14.211Z,24.40
2018-01-26T11:40:41.370Z,24.90
2018-01-26T11:43:08.273Z,25.23
2018-01-26T11:45:35.465Z,25.80
2018-01-26T11:48:02.325Z,25.20
2018-01-26T11:50:29.204Z,25.70
2018-01-26T11:52:56.161Z,25.55
2018-01-26T11:55:23.024Z,24.80
2018-01-26T11:57:49.921Z,24.73
2018-01-26T12:00:16.800Z,25.15
2018-01-26T12:02:43.705Z,24.50
2018-01-26T12:05:10.605Z,24.05
2018-01-26T12:07:37.510Z,23.80
2018-01-26T12:10:04.410Z,25.67
2018-01-26T12:12:31.361Z,24.30
2018-01-26T12:14:58.230Z,22.90
2018-01-26T12:17:25.084Z,22.55
2018-01-26T12:19:52.294Z,22.15
2018-01-26T12:22:19.222Z,24.83
2018-01-26T12:24:46.139Z,23.45
2018-01-26T12:27:13.026Z,24.58
2018-01-26T12:29:39.947Z,25.35
2018-01-26T12:32:06.818Z,24.95
2018-01-26T12:34:33.781Z,25.73
2018-01-26T12:37:00.697Z,26.20
2018-01-26T12:39:27.614Z,26.98
2018-01-26T12:41:54.481Z,28.60
2018-01-26T12:44:21.381Z,27.20
2018-01-26T12:46:48.625Z,26.75
2018-01-26T12:49:15.497Z,27.95
2018-01-26T12:51:42.371Z,29.08
2018-01-26T12:54:09.255Z,27.70
2018-01-26T12:56:36.128Z,28.58
2018-01-26T12:59:03.013Z,27.58
2018-01-26T13:01:30.327Z,27.80
2018-01-26T13:03:57.518Z,27.50
2018-01-26T13:06:24.421Z,27.25
2018-01-26T13:08:51.608Z,26.10
2018-01-26T13:11:18.501Z,26.98
2018-01-26T13:13:45.390Z,26.15
2018-01-26T13:16:12.296Z,26.70
2018-01-26T13:18:39.214Z,27.05
2018-01-26T13:21:06.436Z,26.95
2018-01-26T13:23:33.330Z,26.00
2018-01-26T13:26:00.295Z,27.45
2018-01-26T13:28:27.479Z,26.00
2018-01-26T13:30:54.628Z,28.90
2018-01-26T13:33:21.782Z,27.58
2018-01-26T13:35:48.724Z,28.35
2018-01-26T13:38:15.625Z,28.98
2018-01-26T13:40:42.825Z,28.85
2018-01-26T13:43:09.977Z,28.27
2018-01-26T13:45:37.125Z,29.63
2018-01-26T13:48:04.030Z,29.80
2018-01-26T13:50:31.326Z,30.42
2018-01-26T13:52:58.214Z,29.33
2018-01-26T13:55:25.416Z,30.75
2018-01-26T13:57:52.305Z,29.55
2018-01-26T14:00:19.536Z,30.15
2018-01-26T14:02:46.413Z,29.55
2018-01-26T14:05:13.716Z,30.80
2018-01-26T14:07:40.804Z,29.80
2018-01-26T14:10:07.734Z,30.50
2018-01-26T14:12:34.661Z,29.05
2018-01-26T14:15:01.581Z,28.38
2018-01-26T14:17:28.537Z,28.30
2018-01-26T14:19:55.450Z,28.35
2018-01-26T14:22:22.586Z,28.98
2018-01-26T14:24:49.809Z,29.83
2018-01-26T14:27:16.671Z,28.92
2018-01-26T14:29:43.893Z,29.37
2018-01-26T14:32:11.036Z,29.80
2018-01-26T14:34:37.929Z,30.12
2018-01-26T14:37:04.874Z,28.45
2018-01-26T14:39:31.778Z,28.73
2018-01-26T14:41:59.026Z,28.95
2018-01-26T14:44:25.913Z,29.87
2018-01-26T14:46:52.855Z,29.15
2018-01-26T14:49:19.758Z,30.12
2018-01-26T14:51:47.117Z,27.75
2018-01-26T14:54:13.976Z,28.75
2018-01-26T14:56:40.877Z,28.90
2018-01-26T14:59:07.766Z,28.08
2018-01-26T15:01:34.893Z,28.45
2018-01-26T15:04:01.778Z,27.75
2018-01-26T15:06:28.683Z,25.52
2018-01-26T15:08:55.546Z,25.42
2018-01-26T15:11:22.408Z,26.52
2018-01-26T15:13:49.263Z,24.73
2018-01-26T15:16:16.466Z,24.77
2018-01-26T15:18:43.384Z,24.83
2018-01-26T15:21:10.565Z,25.88
2018-01-26T15:23:37.708Z,26.23
2018-01-26T15:26:04.564Z,26.50
2018-01-26T15:28:31.408Z,26.00
2018-01-26T15:30:58.268Z,26.85
2018-01-26T15:33:25.214Z,26.37
2018-01-26T15:35:52.092Z,28.48
2018-01-26T15:38:19.003Z,24.77
2018-01-26T15:40:46.229Z,23.70
2018-01-26T15:43:13.128Z,25.00
2018-01-26T15:45:40.326Z,24.17
2018-01-26T15:48:07.472Z,24.65
2018-01-26T15:50:34.357Z,25.12
2018-01-26T15:53:01.568Z,24.20
2018-01-26T15:55:28.482Z,23.87
2018-01-26T15:57:55.668Z,24.30
2018-01-26T16:00:22.600Z,22.90
2018-01-26T16:02:49.493Z,22.27
2018-01-26T16:05:16.398Z,23.08
2018-01-26T16:07:43.504Z,22.52
2018-01-26T16:10:10.384Z,22.80
2018-01-26T16:12:37.272Z,26.80
2018-01-26T16:15:04.597Z,23.08
2018-01-26T16:17:31.493Z,24.58
2018-01-26T16:19:58.684Z,23.85
2018-01-26T16:22:25.846Z,25.00
2018-01-26T16:24:52.707Z,24.10
2018-01-26T16:27:19.572Z,22.73
2018-01-26T16:29:46.448Z,21.85
2018-01-26T16:32:13.316Z,23.20
2018-01-26T16:34:40.460Z,23.53
2018-01-26T16:37:07.324Z,24.75
2018-01-26T16:39:34.246Z,23.75
2018-01-26T16:42:01.211Z,23.80
2018-01-26T16:44:28.150Z,25.50
2018-01-26T16:46:55.040Z,26.23
2018-01-26T16:49:21.953Z,24.00
2018-01-26T16:51:48.837Z,24.33
2018-01-26T16:54:15.746Z,23.87
2018-01-26T16:56:42.637Z,25.50
2018-01-26T16:59:09.560Z,24.35
2018-01-26T17:01:36.476Z,23.92
2018-01-26T17:04:03.373Z,22.75
2018-01-26T17:06:30.265Z,25.95
2018-01-26T17:08:57.140Z,26.45
2018-01-26T17:11:23.993Z,40.67
2018-01-26T17:13:50.940Z,40.65
2018-01-26T17:16:17.801Z,45.90
2018-01-26T17:18:44.969Z,42.72
2018-01-26T17:21:11.886Z,35.53
2018-01-26T17:23:38.769Z,28.35
2018-01-26T17:26:05.908Z,29.70
2018-01-26T17:28:32.834Z,27.70
2018-01-26T17:30:59.717Z,26.30
2018-01-26T17:33:26.868Z,24.52
2018-01-26T17:35:54.000Z,24.50
2018-01-26T17:38:21.149Z,23.45
2018-01-26T17:40:48.084Z,25.65
2018-01-26T17:43:14.976Z,24.02
2018-01-26T17:45:41.844Z,23.02
2018-01-26T17:48:09.032Z,22.70
2018-01-26T17:50:35.916Z,23.10
2018-01-26T17:53:02.833Z,26.95
2018-01-26T17:55:29.700Z,27.45
2018-01-26T17:57:56.560Z,27.67
2018-01-26T18:00:23.464Z,30.70
2018-01-26T18:02:50.406Z,35.95
2018-01-26T18:05:17.277Z,41.85
2018-01-26T18:07:44.496Z,36.50
2018-01-26T18:10:11.361Z,37.33
2018-01-26T18:12:38.493Z,44.35
2018-01-26T18:15:05.423Z,35.38
2018-01-26T18:17:32.584Z,30.62
2018-01-26T18:19:59.732Z,29.33
2018-01-26T18:22:27.013Z,28.52
2018-01-26T18:24:53.938Z,29.50
2018-01-26T18:27:21.084Z,30.60
2018-01-26T18:29:48.027Z,32.15
2018-01-26T18:32:14.884Z,31.23
2018-01-26T18:34:41.802Z,30.67
2018-01-26T18:37:08.686Z,30.08
2018-01-26T18:39:35.560Z,30.48
2018-01-26T18:42:03.477Z,29.15
2018-01-26T18:44:30.364Z,30.90
2018-01-26T18:46:58.069Z,27.50
2018-01-26T18:49:24.965Z,27.80
2018-01-26T18:51:51.862Z,27.98
2018-01-26T18:54:19.022Z,28.57
2018-01-26T18:56:45.913Z,27.02
2018-01-26T18:59:13.063Z,31.17
2018-01-26T19:01:40.271Z,30.10
2018-01-26T19:04:07.520Z,31.75
2018-01-26T19:06:34.431Z,31.50
2018-01-26T19:09:01.334Z,27.48
2018-01-26T19:11:28.560Z,24.08
2018-01-26T19:13:55.469Z,25.58
2018-01-26T19:16:22.728Z,22.30
2018-01-26T19:18:49.719Z,25.73
2018-01-26T19:21:16.963Z,27.08
2018-01-26T19:23:44.108Z,26.60
2018-01-26T19:26:11.362Z,27.02
2018-01-26T19:28:38.517Z,24.85
2018-01-26T19:31:05.665Z,23.45
2018-01-26T19:33:32.584Z,21.23
2018-01-26T19:35:59.466Z,22.27
2018-01-26T19:38:26.601Z,20.87
2018-01-26T19:40:53.472Z,20.48
2018-01-26T19:43:20.702Z,24.20
2018-01-26T19:45:47.584Z,23.60
2018-01-26T19:48:14.798Z,24.33
2018-01-26T19:50:41.680Z,27.30
2018-01-26T19:53:08.581Z,23.42
2018-01-26T19:55:35.737Z,25.50
2018-01-26T19:58:02.884Z,31.80
2018-01-26T20:00:30.136Z,27.97
2018-01-26T20:03:03.333Z,25.73
2018-01-26T20:05:48.912Z,23.95
2018-01-26T20:08:20.818Z,28.52
2018-01-26T20:10:47.684Z,25.90
2018-01-26T20:13:14.973Z,26.23
2018-01-26T20:15:41.906Z,26.30
2018-01-26T20:18:09.064Z,28.83
2018-01-26T20:20:36.216Z,44.92
2018-01-26T20:23:03.068Z,53.03
2018-01-26T20:25:30.713Z,35.40
2018-01-26T20:27:57.572Z,33.70
2018-01-26T20:30:24.429Z,30.73
2018-01-26T20:32:51.314Z,28.27
2018-01-26T20:35:18.507Z,29.98
2018-01-26T20:37:45.653Z,27.55
2018-01-26T20:40:12.818Z,28.70
2018-01-26T20:42:39.705Z,27.55
2018-01-26T20:45:06.608Z,26.17
2018-01-26T20:47:33.464Z,25.98
2018-01-26T20:50:00.328Z,27.17
2018-01-26T20:52:27.204Z,28.33
2018-01-26T20:54:54.065Z,29.75
2018-01-26T20:57:21.289Z,31.25
2018-01-26T20:59:48.173Z,30.35
2018-01-26T21:02:15.070Z,42.10
2018-01-26T21:04:42.266Z,43.83
2018-01-26T21:07:09.173Z,39.63
2018-01-26T21:09:36.070Z,30.98
2018-01-26T21:12:02.924Z,26.10
2018-01-26T21:14:30.149Z,29.90
2018-01-26T21:16:57.006Z,29.50
2018-01-26T21:19:24.962Z,26.53
2018-01-26T21:21:51.867Z,27.00
2018-01-26T21:24:18.765Z,28.23
2018-01-26T21:26:46.002Z,28.05
2018-01-26T21:29:12.864Z,31.92
2018-01-26T21:31:40.102Z,37.95
2018-01-26T21:34:07.349Z,33.20
2018-01-26T21:36:34.248Z,35.47
2018-01-26T21:39:01.113Z,36.27
2018-01-26T21:41:28.054Z,33.90
2018-01-26T21:43:55.239Z,35.28
2018-01-26T21:46:22.150Z,35.40
2018-01-26T21:48:49.012Z,35.53
2018-01-26T21:51:16.172Z,32.30
2018-01-26T21:53:43.096Z,36.97
2018-01-26T21:56:10.268Z,35.92
2018-01-26T21:58:37.162Z,31.12
2018-01-26T22:01:04.060Z,32.55
2018-01-26T22:03:31.203Z,31.35
2018-01-26T22:05:58.125Z,35.47
2018-01-26T22:08:24.984Z,36.60
2018-01-26T22:10:52.153Z,37.05
2018-01-26T22:13:19.077Z,31.20
2018-01-26T22:15:45.970Z,33.95
2018-01-26T22:18:12.865Z,32.70
2018-01-26T22:20:39.786Z,31.98
2018-01-26T22:23:06.653Z,33.65
2018-01-26T22:25:33.516Z,32.13
2018-01-26T22:28:00.447Z,32.10
2018-01-26T22:30:27.342Z,35.60
2018-01-26T22:32:54.240Z,30.35
2018-01-26T22:35:21.396Z,32.20
2018-01-26T22:37:48.247Z,32.67
2018-01-26T22:40:15.103Z,28.90
2018-01-26T22:42:42.006Z,31.40
2018-01-26T22:45:08.895Z,29.48
2018-01-26T22:47:35.824Z,25.98
2018-01-26T22:50:02.705Z,26.73
2018-01-26T22:52:29.917Z,25.88
2018-01-26T22:54:56.837Z,44.67
2018-01-26T22:57:24.008Z,44.45
2018-01-26T22:59:50.887Z,42.33
2018-01-26T23:02:18.110Z,43.80
2018-01-26T23:04:45.255Z,38.65
2018-01-26T23:07:12.513Z,39.13
2018-01-26T23:09:39.662Z,34.53
2018-01-26T23:12:06.577Z,32.22
2018-01-26T23:14:33.486Z,28.83
2018-01-26T23:17:00.385Z,29.58
2018-01-26T23:19:27.285Z,29.42
2018-01-26T23:21:54.193Z,28.60
2018-01-26T23:24:21.441Z,28.87
2018-01-26T23:26:48.362Z,27.75
2018-01-26T23:29:15.228Z,26.12
2018-01-26T23:31:42.158Z,24.77
2018-01-26T23:34:09.081Z,26.00
2018-01-26T23:36:35.981Z,26.80
2018-01-26T23:39:02.871Z,25.95
2018-01-26T23:41:29.736Z,26.05
2018-01-26T23:43:56.588Z,25.60
2018-01-26T23:46:23.736Z,24.58
2018-01-26T23:48:50.648Z,26.35
2018-01-26T23:51:17.514Z,26.77
2018-01-26T23:53:44.681Z,24.20
2018-01-26T23:56:11.934Z,24.58
2018-01-26T23:58:38.829Z,24.40
